createdAt,value
2023-03-01T00:03:25.100Z,100040.06
2023-03-01T00:08:28.229Z,100036.85
2023-03-01T00:13:36.496Z,100033.55
2023-03-01T00:18:38.319Z,100036.33
2023-03-01T00:23:40.727Z,100034.79
2023-03-01T00:28:42.961Z,100035.69
2023-03-01T00:33:45.602Z,100040.45
2023-03-01T00:38:47.480Z,100033.98
2023-03-01T00:43:50.570Z,100020.27
2023-03-01T00:48:55.190Z,100025.16
2023-03-01T00:54:00.376Z,100020.17
2023-03-01T00:59:02.245Z,100020.34
2023-03-01T01:04:06.170Z,100019.77
2023-03-01T01:09:08.343Z,100018.27
2023-03-01T01:14:10.110Z,100017.75
2023-03-01T01:19:12.343Z,100011.66
2023-03-01T01:24:14.160Z,100013.58
2023-03-01T01:29:15.988Z,100009.95
2023-03-01T01:34:19.081Z,100003.08
2023-03-01T01:39:21.445Z,100003.70
2023-03-01T01:44:24.921Z,99999.68
2023-03-01T01:49:36.447Z,99995.30
2023-03-01T01:54:38.197Z,99984.94
2023-03-01T01:59:41.550Z,99980.90
2023-03-01T02:04:43.394Z,99966.06
2023-03-01T02:09:46.953Z,99974.02
2023-03-01T02:14:48.741Z,99970.40
2023-03-01T02:20:08.113Z,99965.07
2023-03-01T02:25:10.961Z,99965.87
2023-03-01T02:30:14.135Z,99967.78
2023-03-01T02:35:17.098Z,99968.08
2023-03-01T02:40:19.874Z,99967.27
2023-03-01T02:45:22.189Z,99969.25
2023-03-01T02:50:31.540Z,99966.84
2023-03-01T02:55:33.431Z,99970.38
2023-03-01T03:00:41.087Z,99966.09
2023-03-01T03:05:43.429Z,99966.46
2023-03-01T03:10:45.314Z,99964.86
2023-03-01T03:15:47.303Z,99967.74
2023-03-01T03:20:53.859Z,99967.27
2023-03-01T03:25:55.708Z,99962.34
2023-03-01T03:30:57.526Z,99956.08
2023-03-01T03:35:59.658Z,99954.94
2023-03-01T03:41:03.630Z,99951.45
2023-03-01T03:46:08.703Z,99945.71
2023-03-01T03:51:11.910Z,99942.55
2023-03-01T03:56:13.712Z,99937.89
2023-03-01T04:01:15.529Z,99934.47
2023-03-01T04:06:17.320Z,99938.47
2023-03-01T04:11:28.370Z,99941.39
2023-03-01T04:16:30.477Z,99938.06
2023-03-01T04:21:32.435Z,99941.30
2023-03-01T04:26:34.208Z,99947.88
2023-03-01T04:31:36.482Z,99949.12
2023-03-01T04:36:38.296Z,99947.93
2023-03-01T04:41:40.703Z,99946.42
2023-03-01T04:46:42.496Z,99949.16
2023-03-01T04:51:44.311Z,99941.71
2023-03-01T04:56:46.031Z,99944.59
2023-03-01T05:13:46.771Z,99927.58
2023-03-01T05:18:48.501Z,99927.85
2023-03-01T05:23:50.713Z,99928.63
2023-03-01T05:28:52.378Z,99919.14
2023-03-01T05:33:54.000Z,99917.84
2023-03-01T05:38:56.682Z,99920.88
2023-03-01T05:43:58.353Z,99930.13
2023-03-01T05:49:01.030Z,99930.23
2023-03-01T05:54:02.883Z,99920.42
2023-03-01T05:59:08.421Z,99926.64
2023-03-01T06:04:10.444Z,99929.45
2023-03-01T06:09:12.247Z,99934.57
2023-03-01T06:14:15.667Z,99935.16
2023-03-01T06:19:17.629Z,99938.16
2023-03-01T06:24:19.224Z,99945.08
2023-03-01T06:29:20.990Z,99941.81
2023-03-01T06:34:22.749Z,99948.01
2023-03-01T06:39:24.522Z,99946.50
2023-03-01T06:44:26.905Z,99943.61
2023-03-01T06:49:28.578Z,99943.66
2023-03-01T06:54:30.222Z,99944.52
2023-03-01T06:59:32.460Z,99939.30
2023-03-01T07:04:34.182Z,99935.16
2023-03-01T07:09:35.901Z,99937.27
2023-03-01T07:14:37.513Z,99932.23
2023-03-01T07:19:39.249Z,99937.13
2023-03-01T07:24:42.729Z,99931.70
2023-03-01T07:29:44.478Z,99928.07
2023-03-01T07:34:46.142Z,99928.64
2023-03-01T07:39:47.825Z,99927.61
2023-03-01T07:44:49.553Z,99918.92
2023-03-01T07:49:51.174Z,99912.17
2023-03-01T07:54:52.861Z,99894.39
2023-03-01T07:59:54.497Z,99887.73
2023-03-01T08:04:56.224Z,99887.96
2023-03-01T08:09:57.909Z,99887.30
2023-03-01T08:14:59.714Z,99891.27
2023-03-01T08:20:01.390Z,99890.27
2023-03-01T08:25:03.220Z,99886.05
2023-03-01T08:30:05.507Z,99887.41
2023-03-01T08:35:08.680Z,99884.49
2023-03-01T08:40:11.095Z,99885.83
2023-03-01T08:45:15.160Z,99882.12
2023-03-01T08:50:16.921Z,99884.59
2023-03-01T08:55:18.786Z,99879.95
2023-03-01T09:00:20.871Z,99872.98
2023-03-01T09:05:22.650Z,99869.84
2023-03-01T09:10:24.492Z,99859.67
2023-03-01T09:15:26.250Z,99857.36
2023-03-01T09:20:27.932Z,99859.92
2023-03-01T09:25:29.665Z,99864.70
2023-03-01T09:30:31.271Z,99862.19
2023-03-01T09:35:32.926Z,99860.61
2023-03-01T09:40:34.577Z,99859.36
2023-03-01T09:45:39.302Z,99855.46
2023-03-01T09:50:42.724Z,99860.92
2023-03-01T09:55:47.146Z,99856.38
2023-03-01T10:00:50.195Z,99858.83
2023-03-01T10:06:05.554Z,99853.10
2023-03-01T10:11:20.616Z,99846.06
2023-03-01T10:16:25.708Z,99841.09
2023-03-01T10:21:28.290Z,99833.30
2023-03-01T10:26:35.464Z,99831.73
2023-03-01T10:31:44.171Z,99826.86
2023-03-01T10:36:49.298Z,99822.38
2023-03-01T10:42:01.241Z,99817.02
2023-03-01T10:47:03.237Z,99812.98
2023-03-01T10:52:18.544Z,99809.61
2023-03-01T10:57:46.521Z,99807.75
2023-03-01T11:02:48.993Z,99803.52
2023-03-01T11:07:56.173Z,99800.59
2023-03-01T11:13:17.888Z,99795.43
2023-03-01T11:18:21.383Z,99787.67
2023-03-01T11:23:23.846Z,99776.46
2023-03-01T11:28:28.266Z,99768.73
2023-03-01T11:33:36.142Z,99765.47
2023-03-01T11:38:39.577Z,99761.59
2023-03-01T11:43:44.314Z,99760.34
2023-03-01T11:48:59.960Z,99762.75
2023-03-01T11:54:16.899Z,99752.95
2023-03-01T11:59:38.406Z,99746.06
2023-03-01T12:04:55.033Z,99738.27
2023-03-01T12:10:11.327Z,99730.46
2023-03-01T12:15:19.094Z,99726.11
2023-03-01T12:20:39.495Z,99729.72
2023-03-01T12:25:47.131Z,99723.48
2023-03-01T12:31:01.432Z,99718.39
2023-03-01T12:36:06.334Z,99714.42
2023-03-01T12:41:17.408Z,99699.32
2023-03-01T12:46:29.618Z,99693.59
2023-03-01T12:51:33.573Z,99695.63
2023-03-01T12:56:39.146Z,99689.86
2023-03-01T13:01:54.160Z,99675.64
2023-03-01T13:06:58.973Z,99673.15
2023-03-01T13:12:02.849Z,99666.48
2023-03-01T13:17:26.131Z,99661.00
2023-03-01T13:22:30.347Z,99659.95
2023-03-01T13:27:33.373Z,99657.48
2023-03-01T13:32:44.659Z,99654.47
2023-03-01T13:37:47.528Z,99648.15
2023-03-01T13:43:04.649Z,99647.56
2023-03-01T13:48:10.418Z,99640.45
2023-03-01T13:53:16.439Z,99638.89
2023-03-01T13:58:26.235Z,99635.64
2023-03-01T14:03:29.193Z,99636.65
2023-03-01T14:08:31.875Z,99631.17
2023-03-01T14:13:39.594Z,99622.68
2023-03-01T14:18:56.033Z,99626.01
2023-03-01T14:23:58.733Z,99613.10
2023-03-01T14:29:00.673Z,99606.48
2023-03-01T14:34:02.944Z,99608.07
2023-03-01T14:39:17.795Z,99596.85
2023-03-01T14:44:30.503Z,99595.26
2023-03-01T14:49:33.547Z,99592.73
2023-03-01T14:54:38.876Z,99588.27
2023-03-01T14:59:42.071Z,99589.69
2023-03-01T15:04:46.599Z,99590.14
2023-03-01T15:09:48.748Z,99592.91
2023-03-01T15:15:02.653Z,99588.31
2023-03-01T15:20:06.936Z,99593.54
2023-03-01T15:25:15.400Z,99598.19
2023-03-01T15:30:19.710Z,99591.61
2023-03-01T15:35:41.587Z,99585.80
2023-03-01T15:40:50.536Z,99587.28
2023-03-01T15:45:59.220Z,99585.17
2023-03-01T15:51:02.544Z,99587.17
2023-03-01T15:56:04.494Z,99592.84
2023-03-01T16:01:13.835Z,99596.84
2023-03-01T16:06:15.675Z,99591.90
2023-03-01T16:11:18.940Z,99591.52
2023-03-01T16:16:20.889Z,99597.17
2023-03-01T16:21:23.864Z,99599.43
2023-03-01T16:26:25.599Z,99596.73
2023-03-01T16:31:28.227Z,99595.33
2023-03-01T16:36:30.374Z,99597.92
2023-03-01T16:41:32.875Z,99605.25
2023-03-01T16:46:35.136Z,99606.57
2023-03-01T16:51:37.329Z,99610.41
2023-03-01T16:56:40.674Z,99617.11
2023-03-01T17:01:42.587Z,99627.51
2023-03-01T17:06:44.401Z,99629.16
2023-03-01T17:11:46.151Z,99635.55
2023-03-01T17:16:47.991Z,99639.12
2023-03-01T17:21:49.828Z,99637.06
2023-03-01T17:26:51.680Z,99640.79
2023-03-01T17:31:56.698Z,99642.39
2023-03-01T17:36:58.572Z,99638.67
2023-03-01T17:42:00.692Z,99643.13
2023-03-01T17:47:03.972Z,99648.23
2023-03-01T17:52:05.843Z,99650.70
2023-03-01T17:57:07.793Z,99647.80
2023-03-01T18:02:11.093Z,99645.59
2023-03-01T18:07:12.897Z,99639.45
2023-03-01T18:12:15.070Z,99644.35
2023-03-01T18:17:16.814Z,99640.14
2023-03-01T18:22:18.934Z,99638.20
2023-03-01T18:27:20.732Z,99636.27
2023-03-01T18:32:23.709Z,99634.66
2023-03-01T18:37:25.644Z,99632.58
2023-03-01T18:42:27.463Z,99631.90
2023-03-01T18:47:29.329Z,99638.71
2023-03-01T18:52:31.347Z,99631.22
2023-03-01T18:57:33.190Z,99630.35
2023-03-01T19:02:35.079Z,99626.59
2023-03-01T19:07:37.107Z,99621.52
2023-03-01T19:12:38.839Z,99625.86
2023-03-01T19:17:40.637Z,99625.11
2023-03-01T19:22:42.418Z,99627.86
2023-03-01T19:27:44.190Z,99633.62
2023-03-01T19:32:45.960Z,99633.70
2023-03-01T19:37:47.750Z,99643.62
2023-03-01T19:42:49.605Z,99646.89
2023-03-01T19:47:52.277Z,99647.33
2023-03-01T19:52:54.162Z,99641.73
2023-03-01T19:57:56.027Z,99634.56
2023-03-01T20:02:58.229Z,99634.87
2023-03-01T20:08:00.207Z,99634.70
2023-03-01T20:13:03.219Z,99639.52
2023-03-01T20:18:05.095Z,99639.14
2023-03-01T20:23:06.871Z,99638.19
2023-03-01T20:28:08.645Z,99643.82
2023-03-01T20:33:10.640Z,99644.41
2023-03-01T20:38:12.773Z,99645.56
2023-03-01T20:43:14.579Z,99645.16
2023-03-01T20:48:16.352Z,99644.67
2023-03-01T20:53:20.255Z,99647.84
2023-03-01T20:58:22.187Z,99648.81
2023-03-01T21:03:24.077Z,99640.15
2023-03-01T21:08:26.035Z,99637.73
2023-03-01T21:13:28.230Z,99641.91
2023-03-01T21:18:30.790Z,99639.92
2023-03-01T21:23:33.886Z,99644.89
2023-03-01T21:28:36.127Z,99642.92
2023-03-01T21:33:38.544Z,99638.36
2023-03-01T21:38:41.890Z,99633.77
2023-03-01T21:43:45.065Z,99631.22
2023-03-01T21:48:47.569Z,99633.50
2023-03-01T21:53:50.678Z,99635.61
2023-03-01T21:58:52.966Z,99635.84
2023-03-01T22:03:55.934Z,99639.64
2023-03-01T22:09:00.342Z,99637.98
2023-03-01T22:14:13.588Z,99630.54
2023-03-01T22:19:16.846Z,99633.45
2023-03-01T22:24:19.839Z,99624.58
2023-03-01T22:29:23.994Z,99623.09
2023-03-01T22:34:26.434Z,99627.66
2023-03-01T22:39:28.221Z,99627.75
2023-03-01T22:44:30.671Z,99631.89
2023-03-01T22:49:39.919Z,99630.08
2023-03-01T22:54:43.303Z,99623.20
2023-03-01T22:59:45.115Z,99632.39
2023-03-01T23:04:48.516Z,99628.83
2023-03-01T23:09:51.182Z,99626.46
2023-03-01T23:14:53.106Z,99633.35
2023-03-01T23:19:54.895Z,99638.23
2023-03-01T23:24:56.713Z,99633.55
2023-03-01T23:29:58.550Z,99628.13
2023-03-01T23:35:00.391Z,99623.39
2023-03-01T23:40:05.924Z,99624.71
2023-03-01T23:45:08.954Z,99624.23
2023-03-01T23:50:11.203Z,99625.37
2023-03-01T23:55:14.544Z,99631.67
